This is the latest recevied weather packets stored in our database for station/object Dunnningn. If no packets are shown the sender has not sent any weather packets the latest 10 day(s).
| Time | Temp. | Humidity | Pressure | Rain* | Wind** | Luminosity | Snow |
|---|---|---|---|---|---|---|---|
| 1788057129 | 15.56° C | 81% | 1016 hPa | 0 mm | - | - | - |
| 1788055329 | 16.11° C | 80% | 1015.8 hPa | 0 mm | - | - | - |
| 1788053529 | 16.67° C | 79% | 1016.1 hPa | 0 mm | - | - | - |
| 1788051729 | 17.78° C | 74% | 1016.3 hPa | 0 mm | - | - | - |
| 1788049931 | 17.78° C | 71% | 1016.2 hPa | 0 mm | - | - | - |
| 1788048131 | 17.78° C | 70% | 1016.3 hPa | 0 mm | - | - | - |
| 1788046331 | 17.78° C | 69% | 1016.2 hPa | 0 mm | - | - | - |
| 1788044531 | 17.78° C | 68% | 1015.9 hPa | 0 mm | - | - | - |
| 1788042731 | 17.78° C | 68% | 1015.7 hPa | 0 mm | - | - | - |
| 1788039131 | 17.78° C | 66% | 1015.8 hPa | 0 mm | - | - | - |
| 1788037331 | 17.78° C | 67% | 1015.8 hPa | 0 mm | - | - | - |
| 1788035531 | 17.78° C | 67% | 1016 hPa | 0 mm | - | - | - |
| 1788033731 | 17.78° C | 66% | 1016.1 hPa | 0 mm | - | - | - |
| 1788031931 | 18.33° C | 64% | 1016.2 hPa | 0 mm | - | - | - |
| 1788030132 | 18.89° C | 61% | 1015.9 hPa | 0 mm | - | - | - |
| 1788028331 | 19.44° C | 58% | 1015.9 hPa | 0 mm | - | - | - |
| 1788026531 | 20° C | 60% | 1015.6 hPa | 0 mm | - | - | - |
| 1788024730 | 20.56° C | 58% | 1015.3 hPa | 0 mm | - | - | - |
| 1788022930 | 21.11° C | 56% | 1015.4 hPa | 0 mm | - | - | - |
| 1788021130 | 21.67° C | 56% | 1015.2 hPa | 0 mm | - | - | - |
| 1788019330 | 22.22° C | 54% | 1015.4 hPa | 0 mm | - | - | - |
| 1788017530 | 22.78° C | 52% | 1015.4 hPa | 0 mm | - | - | - |
| 1788015731 | 23.33° C | 49% | 1015.5 hPa | 0 mm | - | - | - |
| 1788013933 | 23.33° C | 52% | 1015.6 hPa | 0 mm | - | - | - |
| 1788012130 | 22.78° C | 53% | 1015.8 hPa | 0 mm | - | - | - |
* Rain since midnight (hover to see other rain measurements)
** Current wind speed in m/s (hover to see current wind gust speed)